11VA weather

Chesapeake General Hospital Heliport
Chesapeake, Virginia, United States

Public forecast

Using degrees Fahrenheit for public forecast. Weather courtesy of forecast.io.

METAR (pilot weather report)

Closest report is Chesapeake Regional Airport, 5.9 nm (10.9 km) SW. Retrieved 2019/04/24 23:35 UTC (20 minutes ago):

KCPK 242335Z AUTO 03004KT 10SM CLR 24/14 A2984 RMK AO2 T02370141

TAF (pilot weather forecast)

Closest forecast is Norfolk International Airport, 9.4 nm (17.4 km) NNE. Retrieved 2019/04/24 18:45 UTC (5 hours ago):

TAF KORF 241743Z 2418/2518 30007KT P6SM SCT150 FM242000 03007KT P6SM SCT050 BKN150 FM250000 08006KT P6SM SCT050 BKN150 FM251200 10008KT P6SM BKN200